createdAt,value
2022-09-02T00:01:39.711Z,99.90
2022-09-02T00:04:19.737Z,99.90
2022-09-02T00:06:49.309Z,99.90
2022-09-02T00:09:19.790Z,99.90
2022-09-02T00:11:49.106Z,99.90
2022-09-02T00:14:25.007Z,99.90
2022-09-02T00:16:52.535Z,99.90
2022-09-02T00:19:25.041Z,99.90
2022-09-02T00:21:54.281Z,99.90
2022-09-02T00:24:24.845Z,99.90
2022-09-02T00:26:51.611Z,99.90
2022-09-02T00:29:24.028Z,99.90
2022-09-02T00:31:51.209Z,99.90
2022-09-02T00:34:18.113Z,99.90
2022-09-02T00:36:46.139Z,99.90
2022-09-02T00:39:13.275Z,99.90
2022-09-02T00:41:42.842Z,99.90
2022-09-02T00:44:13.511Z,99.90
2022-09-02T00:46:40.642Z,99.90
2022-09-02T00:49:16.631Z,99.90
2022-09-02T00:51:48.659Z,99.90
2022-09-02T00:54:20.089Z,99.90
2022-09-02T00:56:48.179Z,99.90
2022-09-02T00:59:45.139Z,99.90
2022-09-02T01:02:12.310Z,99.90
2022-09-02T01:04:43.351Z,99.90
2022-09-02T01:07:10.191Z,99.90
2022-09-02T01:09:37.981Z,99.90
2022-09-02T01:12:05.592Z,99.90
2022-09-02T01:14:32.444Z,99.90
2022-09-02T01:17:01.521Z,99.90
2022-09-02T01:19:40.374Z,99.90
2022-09-02T01:22:17.983Z,99.90
2022-09-02T01:24:44.903Z,99.90
2022-09-02T01:27:16.547Z,99.90
2022-09-02T01:29:44.414Z,99.90
2022-09-02T01:32:11.945Z,99.90
2022-09-02T01:34:38.910Z,99.90
2022-09-02T01:37:05.822Z,99.90
2022-09-02T01:39:32.665Z,99.90
2022-09-02T01:42:00.720Z,99.90
2022-09-02T01:44:27.662Z,99.90
2022-09-02T01:46:55.022Z,99.90
2022-09-02T01:49:23.071Z,99.90
2022-09-02T01:51:49.962Z,99.90
2022-09-02T01:54:16.744Z,99.90
2022-09-02T01:56:43.561Z,99.90
2022-09-02T01:59:11.792Z,99.90
2022-09-02T02:01:38.695Z,99.90
2022-09-02T02:04:08.306Z,99.90
2022-09-02T02:06:43.604Z,99.90
2022-09-02T02:09:12.463Z,99.90
2022-09-02T02:11:39.895Z,99.90
2022-09-02T02:14:06.880Z,99.90
2022-09-02T02:16:33.845Z,99.90
2022-09-02T02:19:01.420Z,99.90
2022-09-02T02:21:28.349Z,99.90
2022-09-02T02:23:55.248Z,99.90
2022-09-02T02:26:22.021Z,99.90
2022-09-02T02:28:49.494Z,99.90
2022-09-02T02:31:16.364Z,99.90
2022-09-02T02:33:43.179Z,99.90
2022-09-02T02:36:10.458Z,99.90
2022-09-02T02:38:38.999Z,99.90
2022-09-02T02:41:06.598Z,99.90
2022-09-02T02:43:34.843Z,99.90
2022-09-02T02:46:01.973Z,99.90
2022-09-02T02:48:29.069Z,99.90
2022-09-02T02:50:56.059Z,99.90
2022-09-02T02:53:23.296Z,99.90
2022-09-02T02:55:51.401Z,99.90
2022-09-02T02:58:18.674Z,99.90
2022-09-02T03:00:46.560Z,99.90
2022-09-02T03:03:14.620Z,99.90
2022-09-02T03:05:41.532Z,99.90
2022-09-02T03:08:10.465Z,99.90
2022-09-02T03:10:38.677Z,99.90
2022-09-02T03:13:06.064Z,99.90
2022-09-02T03:15:33.978Z,99.90
2022-09-02T03:18:00.888Z,99.90
2022-09-02T03:20:28.170Z,99.90
2022-09-02T03:22:56.958Z,99.90
2022-09-02T03:25:25.054Z,99.90
2022-09-02T03:27:52.491Z,99.90
2022-09-02T03:30:22.320Z,99.90
2022-09-02T03:32:50.802Z,99.90
2022-09-02T03:35:20.181Z,99.90
2022-09-02T03:37:48.401Z,99.90
2022-09-02T03:40:18.430Z,99.90
2022-09-02T03:42:47.339Z,99.90
2022-09-02T03:45:17.809Z,99.90
2022-09-02T03:47:54.322Z,99.90
2022-09-02T03:50:31.428Z,99.90
2022-09-02T03:52:59.616Z,99.90
2022-09-02T03:55:27.158Z,99.90
2022-09-02T03:57:54.614Z,99.90
2022-09-02T04:00:25.764Z,99.90
2022-09-02T04:02:53.488Z,99.90
2022-09-02T04:05:20.471Z,99.90
2022-09-02T04:07:47.326Z,99.90
2022-09-02T04:10:14.909Z,99.90
2022-09-02T04:12:41.910Z,99.90
2022-09-02T04:15:10.842Z,99.90
2022-09-02T04:17:40.012Z,99.90
2022-09-02T04:20:09.709Z,99.90
2022-09-02T04:22:36.878Z,99.90
2022-09-02T04:25:04.534Z,99.90
2022-09-02T04:27:31.789Z,99.90
2022-09-02T04:29:59.482Z,99.90
2022-09-02T04:32:26.640Z,99.90
2022-09-02T04:34:53.638Z,99.90
2022-09-02T04:37:20.492Z,99.90
2022-09-02T04:39:47.268Z,99.90
2022-09-02T04:42:14.139Z,99.90
2022-09-02T04:44:41.064Z,99.90
2022-09-02T04:47:08.252Z,99.90
2022-09-02T04:49:35.312Z,99.90
2022-09-02T04:52:02.192Z,99.90
2022-09-02T04:54:29.131Z,99.90
2022-09-02T04:56:56.098Z,99.90
2022-09-02T04:59:22.839Z,99.90
2022-09-02T05:01:51.095Z,99.90
2022-09-02T05:04:18.132Z,99.90
2022-09-02T05:06:47.332Z,99.90
2022-09-02T05:09:14.302Z,99.90
2022-09-02T05:11:41.856Z,99.90
2022-09-02T05:14:08.805Z,99.90
2022-09-02T05:16:38.115Z,99.90
2022-09-02T05:19:08.563Z,99.90
2022-09-02T05:21:39.246Z,99.90
2022-09-02T05:24:06.420Z,99.90
2022-09-02T05:26:36.020Z,99.90
2022-09-02T05:29:07.057Z,99.90
2022-09-02T05:31:34.537Z,99.90
2022-09-02T05:34:01.575Z,99.90
2022-09-02T05:36:28.453Z,99.90
2022-09-02T05:38:55.327Z,99.90
2022-09-02T05:41:24.206Z,99.90
2022-09-02T05:43:52.828Z,99.90
2022-09-02T05:46:22.380Z,99.90
2022-09-02T05:49:22.994Z,99.90
2022-09-02T05:52:00.200Z,99.90
2022-09-02T05:54:30.233Z,99.90
2022-09-02T05:56:59.974Z,99.90
2022-09-02T05:59:29.422Z,99.90
2022-09-02T06:01:57.347Z,99.90
2022-09-02T06:04:24.612Z,99.90
2022-09-02T06:06:51.591Z,99.90
2022-09-02T06:09:21.845Z,99.90
2022-09-02T06:11:50.122Z,99.90
2022-09-02T06:14:21.817Z,99.90
2022-09-02T06:16:50.517Z,99.90
2022-09-02T06:19:20.242Z,99.90
2022-09-02T06:21:49.109Z,99.90
2022-09-02T06:24:16.406Z,99.90
2022-09-02T06:26:43.516Z,99.90
2022-09-02T06:29:11.763Z,99.90
2022-09-02T06:31:44.872Z,99.90
2022-09-02T06:34:13.831Z,99.90
2022-09-02T06:36:42.868Z,99.90
2022-09-02T06:39:12.458Z,99.90
2022-09-02T06:41:40.689Z,99.90
2022-09-02T06:44:09.452Z,99.90
2022-09-02T06:46:39.637Z,99.90
2022-09-02T06:49:08.655Z,99.90
2022-09-02T06:51:41.962Z,99.90
2022-09-02T06:54:14.231Z,99.90
2022-09-02T06:56:45.937Z,99.90
2022-09-02T06:59:16.592Z,99.90
2022-09-02T07:01:45.052Z,99.90
2022-09-02T07:04:30.546Z,99.90
2022-09-02T07:06:57.919Z,99.90
2022-09-02T07:09:31.478Z,99.90
2022-09-02T07:12:04.983Z,99.90
2022-09-02T07:14:37.252Z,99.90
2022-09-02T07:17:04.343Z,99.90
2022-09-02T07:19:31.686Z,99.90
2022-09-02T07:21:58.833Z,99.90
2022-09-02T07:24:25.912Z,99.90
2022-09-02T07:26:55.356Z,99.90
2022-09-02T07:29:23.680Z,99.90
2022-09-02T07:31:51.183Z,99.90
2022-09-02T07:34:19.237Z,99.90
2022-09-02T07:36:46.451Z,99.90
2022-09-02T07:39:14.768Z,99.90
2022-09-02T07:41:43.640Z,99.90
2022-09-02T07:44:11.120Z,99.90
2022-09-02T07:46:39.036Z,99.90
2022-09-02T07:49:09.621Z,99.90
2022-09-02T07:51:39.657Z,99.90
2022-09-02T07:54:07.744Z,99.90
2022-09-02T07:56:34.654Z,99.90
2022-09-02T07:59:01.947Z,99.90
2022-09-02T08:01:29.606Z,99.90
2022-09-02T08:03:59.433Z,99.90
2022-09-02T08:06:34.702Z,99.90
2022-09-02T08:09:04.995Z,99.90
2022-09-02T08:11:32.742Z,99.90
2022-09-02T08:14:00.986Z,99.90
2022-09-02T08:16:29.176Z,99.90
2022-09-02T08:18:56.288Z,99.90
2022-09-02T08:21:23.460Z,99.90
2022-09-02T08:23:51.324Z,99.70
2022-09-02T08:26:19.161Z,99.40
2022-09-02T08:28:46.216Z,99.20
2022-09-02T08:31:13.713Z,98.80
2022-09-02T08:33:41.702Z,99.00
2022-09-02T08:36:11.795Z,99.20
2022-09-02T08:38:38.647Z,98.90
2022-09-02T08:41:26.101Z,99.00
2022-09-02T08:43:59.998Z,99.10
2022-09-02T08:46:31.366Z,99.10
2022-09-02T08:49:27.859Z,98.40
2022-09-02T08:52:01.620Z,98.20
2022-09-02T08:54:43.889Z,98.20
2022-09-02T08:57:11.561Z,98.00
2022-09-02T09:02:26.330Z,98.10
2022-09-02T09:05:29.699Z,98.30
2022-09-02T09:08:15.814Z,98.30
2022-09-02T09:10:58.920Z,97.80
2022-09-02T09:14:02.380Z,97.80
2022-09-02T09:16:40.100Z,97.10
2022-09-02T09:19:16.760Z,96.70
2022-09-02T09:21:44.549Z,96.50
2022-09-02T09:24:21.232Z,96.30
2022-09-02T09:26:48.094Z,96.70
2022-09-02T09:29:14.999Z,96.20
2022-09-02T09:31:43.911Z,96.20
2022-09-02T09:34:14.477Z,95.30
2022-09-02T09:36:41.232Z,95.00
2022-09-02T09:39:21.911Z,95.00
2022-09-02T09:41:49.808Z,94.40
2022-09-02T09:44:38.854Z,94.50
2022-09-02T09:47:20.813Z,94.20
2022-09-02T09:49:51.933Z,94.00
2022-09-02T09:52:28.117Z,93.50
2022-09-02T09:55:13.192Z,93.80
2022-09-02T09:57:44.727Z,93.10
2022-09-02T10:00:32.108Z,93.40
2022-09-02T10:03:01.872Z,93.40
2022-09-02T10:05:36.717Z,93.00
2022-09-02T10:08:17.936Z,93.50
2022-09-02T10:11:08.495Z,93.40
2022-09-02T10:13:38.097Z,93.30
2022-09-02T10:16:52.631Z,93.70
2022-09-02T10:19:38.285Z,93.00
2022-09-02T10:22:37.907Z,93.30
2022-09-02T10:25:29.765Z,93.30
2022-09-02T10:28:19.895Z,92.60
2022-09-02T10:31:13.807Z,92.70
2022-09-02T10:33:54.505Z,92.80
2022-09-02T10:36:47.725Z,92.60
2022-09-02T10:39:37.194Z,92.60
2022-09-02T10:42:16.787Z,92.40
2022-09-02T10:45:07.986Z,92.10
2022-09-02T10:47:40.600Z,92.10
2022-09-02T10:50:14.035Z,92.20
2022-09-02T10:52:40.924Z,92.20
2022-09-02T10:55:17.708Z,92.10
2022-09-02T10:58:01.989Z,92.40
2022-09-02T11:00:31.144Z,92.00
2022-09-02T11:03:15.826Z,92.10
2022-09-02T11:05:52.041Z,92.00
2022-09-02T11:08:30.904Z,91.70
2022-09-02T11:11:21.658Z,91.80
2022-09-02T11:14:10.204Z,92.10
2022-09-02T11:16:49.155Z,92.40
2022-09-02T11:19:29.563Z,92.40
2022-09-02T11:22:08.883Z,92.00
2022-09-02T11:24:46.448Z,92.00
2022-09-02T11:27:32.484Z,92.10
2022-09-02T11:30:21.617Z,91.30
2022-09-02T11:33:01.461Z,91.60
2022-09-02T11:35:33.899Z,91.80
2022-09-02T11:38:05.484Z,91.80
2022-09-02T11:40:36.566Z,91.90
2022-09-02T11:43:24.258Z,91.80
2022-09-02T11:46:06.437Z,91.90
2022-09-02T11:48:36.388Z,91.90
2022-09-02T11:51:29.136Z,92.20
2022-09-02T11:53:57.397Z,92.10
2022-09-02T11:56:39.797Z,92.00
2022-09-02T11:59:08.563Z,91.80
2022-09-02T12:01:48.179Z,91.90
2022-09-02T12:07:13.797Z,91.60
2022-09-02T12:09:56.675Z,91.80
2022-09-02T12:12:39.093Z,92.10
2022-09-02T12:15:06.644Z,91.90
2022-09-02T12:17:52.057Z,91.90
2022-09-02T12:20:38.455Z,91.90
2022-09-02T12:23:07.416Z,92.20
2022-09-02T12:25:38.316Z,92.20
2022-09-02T12:28:29.254Z,91.70
2022-09-02T12:31:02.841Z,92.00
2022-09-02T12:33:30.758Z,92.00
2022-09-02T12:35:59.718Z,91.70
2022-09-02T12:38:27.852Z,91.60
2022-09-02T12:41:05.434Z,91.80
2022-09-02T12:43:44.567Z,92.40
2022-09-02T12:46:36.543Z,92.40
2022-09-02T12:49:29.916Z,92.60
2022-09-02T12:52:02.432Z,92.80
2022-09-02T12:54:55.474Z,92.90
2022-09-02T12:57:42.673Z,92.80
2022-09-02T13:00:31.385Z,92.90
2022-09-02T13:03:36.391Z,92.90
2022-09-02T13:06:20.684Z,92.90
2022-09-02T13:09:31.607Z,93.20
2022-09-02T13:12:27.826Z,93.40
2022-09-02T13:15:01.504Z,93.30
2022-09-02T13:17:48.698Z,93.60
2022-09-02T13:20:27.990Z,93.00
2022-09-02T13:23:10.149Z,93.10
2022-09-02T13:25:44.004Z,93.20
2022-09-02T13:28:41.296Z,93.30
2022-09-02T13:31:24.162Z,93.30
2022-09-02T13:34:03.661Z,92.90
2022-09-02T13:36:43.307Z,92.90
2022-09-02T13:39:16.296Z,92.90
2022-09-02T13:41:43.227Z,92.80
2022-09-02T13:44:13.163Z,92.70
2022-09-02T13:46:45.418Z,92.80
2022-09-02T13:49:20.445Z,93.10
2022-09-02T13:51:47.989Z,93.30
2022-09-02T13:54:23.460Z,93.00
2022-09-02T13:56:50.569Z,93.10
2022-09-02T13:59:32.267Z,93.10
2022-09-02T14:01:59.350Z,93.00
2022-09-02T14:04:27.744Z,92.80
2022-09-02T14:06:54.844Z,92.40
2022-09-02T14:09:26.884Z,92.70
2022-09-02T14:11:54.575Z,92.70
2022-09-02T14:14:24.289Z,92.60
2022-09-02T14:16:52.615Z,92.50
2022-09-02T14:19:22.326Z,92.60
2022-09-02T14:21:58.386Z,92.60
2022-09-02T14:24:28.004Z,92.30
2022-09-02T14:26:59.784Z,92.10
2022-09-02T14:29:30.039Z,92.10
2022-09-02T14:32:26.454Z,92.30
2022-09-02T14:35:16.388Z,92.40
2022-09-02T14:37:50.980Z,92.20
2022-09-02T14:40:19.684Z,92.10
2022-09-02T14:42:57.249Z,92.10
2022-09-02T14:45:35.206Z,91.90
2022-09-02T14:48:11.175Z,92.10
2022-09-02T14:50:39.748Z,91.60
2022-09-02T14:53:09.138Z,91.90
2022-09-02T14:55:46.319Z,91.60
2022-09-02T14:58:13.484Z,91.80
2022-09-02T15:00:40.440Z,92.00
2022-09-02T15:03:07.669Z,92.10
2022-09-02T15:05:34.548Z,91.60
2022-09-02T15:08:01.442Z,91.60
2022-09-02T15:10:28.209Z,91.50
2022-09-02T15:12:57.532Z,91.80
2022-09-02T15:15:25.668Z,91.50
2022-09-02T15:17:52.640Z,91.60
2022-09-02T15:20:21.900Z,91.80
2022-09-02T15:22:49.001Z,91.80
2022-09-02T15:25:15.898Z,91.60
2022-09-02T15:27:42.699Z,91.60
2022-09-02T15:30:10.240Z,91.50
2022-09-02T15:32:38.298Z,91.60
2022-09-02T15:35:07.004Z,91.10
2022-09-02T15:37:38.228Z,91.20
2022-09-02T15:40:08.027Z,91.50
2022-09-02T15:42:36.658Z,91.60
2022-09-02T15:45:05.656Z,91.60
2022-09-02T15:47:35.773Z,91.80
2022-09-02T15:50:02.690Z,91.60
2022-09-02T15:52:29.519Z,91.70
2022-09-02T15:54:56.553Z,91.80
2022-09-02T15:57:23.535Z,91.80
2022-09-02T15:59:51.409Z,91.70
2022-09-02T16:02:18.326Z,91.90
2022-09-02T16:04:45.118Z,91.80
2022-09-02T16:07:15.345Z,91.90
2022-09-02T16:09:44.149Z,92.00
2022-09-02T16:12:11.219Z,91.80
2022-09-02T16:14:38.033Z,91.70
2022-09-02T16:17:05.040Z,91.80
2022-09-02T16:19:31.976Z,91.80
2022-09-02T16:21:58.970Z,91.80
2022-09-02T16:24:25.859Z,91.90
2022-09-02T16:26:52.633Z,91.90
2022-09-02T16:29:19.682Z,91.60
2022-09-02T16:32:02.270Z,91.50
2022-09-02T16:34:34.944Z,91.90
2022-09-02T16:37:01.759Z,92.10
2022-09-02T16:39:28.654Z,92.20
2022-09-02T16:41:55.609Z,92.40
2022-09-02T16:44:25.713Z,92.40
2022-09-02T16:46:53.676Z,92.50
2022-09-02T16:49:22.171Z,92.50
2022-09-02T16:51:50.812Z,92.60
2022-09-02T16:54:31.256Z,92.60
2022-09-02T16:57:00.244Z,92.20
2022-09-02T16:59:27.629Z,92.60
2022-09-02T17:01:54.764Z,92.80
2022-09-02T17:04:21.590Z,92.80
2022-09-02T17:06:48.708Z,92.70
2022-09-02T17:09:16.481Z,92.80
2022-09-02T17:11:45.418Z,92.90
2022-09-02T17:14:17.485Z,93.00
2022-09-02T17:16:47.186Z,93.10
2022-09-02T17:19:17.092Z,93.20
2022-09-02T17:21:47.070Z,93.20
2022-09-02T17:24:15.235Z,93.00
2022-09-02T17:26:44.296Z,93.30
2022-09-02T17:29:31.947Z,93.60
2022-09-02T17:32:03.950Z,93.60
2022-09-02T17:34:33.300Z,93.70
2022-09-02T17:37:00.380Z,93.80
2022-09-02T17:39:27.437Z,93.90
2022-09-02T17:41:54.400Z,93.70
2022-09-02T17:44:23.119Z,93.70
2022-09-02T17:46:51.116Z,93.90
2022-09-02T17:49:18.534Z,93.90
2022-09-02T17:51:46.636Z,94.00
2022-09-02T17:54:14.941Z,94.10
2022-09-02T17:57:02.029Z,94.00
2022-09-02T18:00:01.310Z,94.20
2022-09-02T18:02:37.577Z,94.50
2022-09-02T18:05:29.141Z,94.60
2022-09-02T18:08:24.217Z,94.80
2022-09-02T18:10:58.087Z,94.80
2022-09-02T18:13:39.793Z,95.00
2022-09-02T18:16:51.450Z,95.20
2022-09-02T18:19:45.910Z,95.30
2022-09-02T18:22:32.620Z,95.50
2022-09-02T18:25:31.892Z,95.50
2022-09-02T18:28:31.531Z,95.70
2022-09-02T18:31:07.426Z,95.90
2022-09-02T18:33:54.852Z,96.20
2022-09-02T18:36:42.618Z,96.30
2022-09-02T18:39:12.247Z,96.30
2022-09-02T18:42:17.656Z,96.40
2022-09-02T18:44:59.681Z,96.50
2022-09-02T18:47:52.838Z,96.70
2022-09-02T18:53:18.591Z,96.70
2022-09-02T18:55:47.616Z,96.90
2022-09-02T18:58:34.390Z,97.10
2022-09-02T19:01:08.226Z,97.10
2022-09-02T19:03:36.959Z,97.10
2022-09-02T19:06:16.232Z,97.10
2022-09-02T19:08:45.418Z,96.90
2022-09-02T19:11:17.961Z,96.90
2022-09-02T19:13:52.752Z,97.00
2022-09-02T19:16:27.963Z,97.20
2022-09-02T19:18:55.105Z,97.40
2022-09-02T19:21:27.731Z,97.40
2022-09-02T19:23:54.851Z,97.50
2022-09-02T19:26:23.439Z,97.30
2022-09-02T19:28:51.732Z,97.30
2022-09-02T19:31:24.382Z,97.30
2022-09-02T19:33:56.652Z,97.40
2022-09-02T19:36:26.487Z,97.30
2022-09-02T19:38:58.496Z,97.20
2022-09-02T19:41:27.654Z,97.10
2022-09-02T19:43:55.028Z,97.20
2022-09-02T19:46:56.100Z,97.20
2022-09-02T19:49:09.860Z,97.30
2022-09-02T19:51:36.723Z,97.20
2022-09-02T19:54:03.937Z,97.40
2022-09-02T19:59:24.403Z,97.60
2022-09-02T20:01:51.235Z,97.50
2022-09-02T20:04:18.754Z,97.60
2022-09-02T20:06:45.606Z,97.80
2022-09-02T20:09:12.739Z,98.00
2022-09-02T20:11:41.094Z,98.20
2022-09-02T20:14:26.746Z,98.30
2022-09-02T20:16:56.783Z,98.20
2022-09-02T20:19:23.912Z,98.10
2022-09-02T20:21:53.901Z,98.20
2022-09-02T20:24:36.324Z,98.50
2022-09-02T20:27:35.370Z,98.60
2022-09-02T20:30:13.177Z,98.00
2022-09-02T20:32:58.545Z,97.80
2022-09-02T20:35:47.268Z,97.50
2022-09-02T20:38:19.869Z,97.40
2022-09-02T20:41:08.503Z,97.40
2022-09-02T20:43:53.658Z,97.40
2022-09-02T20:46:30.312Z,97.70
2022-09-02T20:49:08.837Z,97.70
2022-09-02T20:52:00.939Z,97.90
2022-09-02T20:54:35.413Z,98.00
2022-09-02T20:57:21.013Z,97.90
2022-09-02T21:00:02.329Z,97.40
2022-09-02T21:02:35.094Z,97.40
2022-09-02T21:05:39.912Z,97.60
2022-09-02T21:08:24.512Z,97.60
2022-09-02T21:11:00.703Z,97.80
2022-09-02T21:13:42.464Z,98.00
2022-09-02T21:16:37.321Z,97.80
2022-09-02T21:19:44.591Z,98.10
2022-09-02T21:22:25.279Z,98.30
2022-09-02T21:24:57.829Z,98.40
2022-09-02T21:27:45.499Z,97.90
2022-09-02T21:30:18.085Z,97.70
2022-09-02T21:33:01.891Z,97.70
2022-09-02T21:35:37.257Z,97.70
2022-09-02T21:38:10.389Z,97.70
2022-09-02T21:40:58.462Z,98.00
2022-09-02T21:43:45.771Z,98.10
2022-09-02T21:46:21.492Z,97.90
2022-09-02T21:49:12.811Z,98.10
2022-09-02T21:51:45.359Z,98.30
2022-09-02T21:54:25.088Z,97.40
2022-09-02T21:57:19.101Z,97.70
2022-09-02T22:00:08.738Z,97.90
2022-09-02T22:02:41.407Z,98.20
2022-09-02T22:05:13.708Z,98.30
2022-09-02T22:08:11.176Z,98.30
2022-09-02T22:10:41.808Z,98.10
2022-09-02T22:13:09.040Z,97.50
2022-09-02T22:16:01.293Z,97.10
2022-09-02T22:18:52.256Z,97.00
2022-09-02T22:21:48.434Z,96.90
2022-09-02T22:24:29.130Z,96.90
2022-09-02T22:27:04.919Z,96.90
2022-09-02T22:30:04.150Z,96.90
2022-09-02T22:32:37.442Z,97.10
2022-09-02T22:35:15.304Z,97.30
2022-09-02T22:38:03.406Z,97.40
2022-09-02T22:40:36.244Z,97.60
2022-09-02T22:43:07.579Z,97.80
2022-09-02T22:45:57.414Z,97.90
2022-09-02T22:48:52.235Z,98.00
2022-09-02T22:52:01.595Z,97.90
2022-09-02T22:54:29.191Z,98.00
2022-09-02T22:57:19.251Z,98.10
2022-09-02T23:00:09.212Z,98.10
2022-09-02T23:03:06.738Z,98.30
2022-09-02T23:05:45.397Z,98.40
2022-09-02T23:08:14.426Z,98.60
2022-09-02T23:10:53.494Z,98.70
2022-09-02T23:13:31.044Z,98.70
2022-09-02T23:16:12.032Z,98.80
2022-09-02T23:18:42.120Z,98.90
2022-09-02T23:21:32.809Z,98.80
2022-09-02T23:24:09.326Z,98.30
2022-09-02T23:26:36.142Z,98.20
2022-09-02T23:29:28.716Z,98.00
2022-09-02T23:32:07.776Z,98.20
2022-09-02T23:34:40.582Z,97.80
2022-09-02T23:37:26.885Z,97.70
2022-09-02T23:40:13.761Z,97.80
2022-09-02T23:42:40.524Z,97.90
2022-09-02T23:45:21.891Z,97.60
2022-09-02T23:47:54.787Z,97.50
2022-09-02T23:50:25.870Z,97.50
2022-09-02T23:52:58.844Z,97.50
2022-09-02T23:55:59.582Z,97.50
2022-09-02T23:58:45.085Z,97.40
